Stations météo

réclame
Mon MeteoGroup
Coventry/Coundon, Grande-Bretagne (99070): Température de l'air & dewpoint: 24.03.2020 13:00:00 - 30.03.2020 13:00:00 (BST)Coventry/Coundon, Grande-Bretagne (99070): Température de l'air -20cm & Température de l'air -100cm: 24.03.2020 13:00:00 - 30.03.2020 13:00:00 (BST)Coventry/Coundon, Grande-Bretagne (99070): Vitesse du vent & gusts: 24.03.2020 13:00:00 - 30.03.2020 13:00:00 (BST)Coventry/Coundon, Grande-Bretagne (99070): Direction du vent: 24.03.2020 13:00:00 - 30.03.2020 13:00:00 (BST)Coventry/Coundon, Grande-Bretagne (99070): Ensoleillement: 24.03.2020 13:00:00 - 30.03.2020 13:00:00 (BST)Coventry/Coundon, Grande-Bretagne (99070): Quantités de précipitations: 24.03.2020 13:00:00 - 30.03.2020 13:00:00 (BST)
Date & Time tt [°C] td [°C] tt -20cm [°C] tt -100cm [°C] ff [km/h] ff [knt] fx [km/h] fx [knt] dd sd [min] rr [mm]
30.03.2020 13:00:00 7,0 2,9 - - 15 8 - - N 6 0,0
30.03.2020 12:00:00 6,7 2,8 - - 15 8 - - N 0 0,0
30.03.2020 11:00:00 6,5 1,8 - - 15 8 - - N 12 0,0
30.03.2020 10:00:00 5,9 1,9 7,2 8,0 18 10 - - N 18 0,0
30.03.2020 09:00:00 3,9 -0,5 - - 13 7 - - NNW 42 0,0
30.03.2020 08:00:00 2,2 -2,3 - - 11 6 - - NNW 6 0,0
30.03.2020 07:00:00 1,6 -3,3 - - 13 7 - - NNW 0 0,0
30.03.2020 06:00:00 1,0 -3,5 - - 13 7 - - NNW 0 0,0
30.03.2020 05:00:00 1,0 -3,4 - - 11 6 - - NNW 0 0,0
30.03.2020 04:00:00 1,7 -2,6 - - 16 9 - - NNW 0 0,0
30.03.2020 03:00:00 2,0 -2,3 - - 11 6 - - N 0 0,0
30.03.2020 02:00:00 1,6 -2,0 - - 13 7 - - N 0 0,0
30.03.2020 01:00:00 0,7 -2,3 - - 11 6 - - N - 0,0
30.03.2020 00:00:00 1,6 -2,3 - - 11 6 - - N 0 0,0
29.03.2020 23:00:00 3,1 -1,7 - - 15 8 - - N 0 0,0
29.03.2020 22:00:00 3,1 -2,2 - - 15 8 - - NNE 0 0,0
29.03.2020 21:00:00 3,9 -2,5 - - 24 13 - - NNE 0 0,0
29.03.2020 20:00:00 4,3 -3,2 - - 22 12 - - NNE 0 0,0
29.03.2020 19:00:00 5,0 -4,4 - - 21 11 - - NNE 0 0,0
29.03.2020 18:00:00 5,3 -4,2 - - 26 14 - - NE 12 0,0
29.03.2020 17:00:00 6,1 -2,9 - - 28 15 50 27 NE 18 0,0
29.03.2020 16:00:00 7,4 -4,5 - - 24 13 52 28 NE 48 0,0
29.03.2020 15:00:00 7,4 -3,6 - - 26 14 52 28 NE 36 0,0
29.03.2020 14:00:00 6,9 -3,8 - - 29 16 52 28 NE 42 0,0
29.03.2020 13:00:00 5,5 -2,7 - - 24 13 50 27 NNE 30 0,0
29.03.2020 12:00:00 6,0 -0,5 - - 24 13 52 28 NNE 36 0,0
29.03.2020 11:00:00 4,8 -3,4 - - 31 17 57 31 NNE 6 0,0
29.03.2020 10:00:00 4,1 -2,5 7,4 8,0 24 13 50 27 NNE 18 0,0
29.03.2020 09:00:00 3,8 -2,0 - - 29 16 52 28 NE 36 0,0
29.03.2020 08:00:00 2,6 -2,6 - - 24 13 46 25 NNE 30 0,0
29.03.2020 07:00:00 2,4 -2,8 - - 21 11 - - NNE 0 0,0
29.03.2020 06:00:00 2,5 -2,5 - - 15 8 - - NNE 0 0,0
29.03.2020 05:00:00 2,7 -3,0 - - 16 9 - - NNE 0 0,0
29.03.2020 04:00:00 2,9 -2,6 - - 15 8 - - N 0 0,0
29.03.2020 03:00:00 2,7 -2,1 - - 22 12 - - NNE 0 0,0
29.03.2020 02:00:00 3,1 -0,3 - - 21 11 - - NNE 0 0,0
29.03.2020 01:00:00 3,1 -0,4 - - 22 12 - - NNE - 0,0
29.03.2020 00:00:00 3,0 -0,9 - - 18 10 - - NNE 0 0,0
28.03.2020 23:00:00 3,5 -0,6 - - 16 9 - - NNE 0 0,0
28.03.2020 22:00:00 4,2 -0,4 - - 22 12 - - NNE 0 0,0
28.03.2020 21:00:00 5,3 -0,2 - - 18 10 - - NNE 0 0,0
28.03.2020 20:00:00 5,6 0,1 - - 24 13 46 25 NNE 0 0,0
28.03.2020 19:00:00 6,2 -0,6 - - 21 11 48 26 NNE 0 0,0
28.03.2020 18:00:00 7,7 0,7 - - 26 14 48 26 NE 0 0,0
28.03.2020 17:00:00 8,7 1,3 - - 22 12 46 25 NE 0 0,0
28.03.2020 16:00:00 9,4 1,1 - - 26 14 - - NE 6 0,0
28.03.2020 15:00:00 9,0 1,5 - - 28 15 48 26 ENE 12 0,0
28.03.2020 14:00:00 9,1 1,8 - - 31 17 52 28 NE 6 0,0
28.03.2020 13:00:00 7,9 2,3 - - 24 13 46 25 NE 0 0,0
28.03.2020 12:00:00 8,2 2,0 - - 28 15 46 25 NE 6 0,0
28.03.2020 11:00:00 7,8 2,7 - - 28 15 52 28 NE 12 0,0
28.03.2020 10:00:00 8,0 3,4 7,7 8,0 28 15 52 28 NE 42 0,0
28.03.2020 09:00:00 6,1 3,6 - - 21 11 - - NE 0 0,0
28.03.2020 08:00:00 5,5 3,5 - - 21 11 46 25 NE 0 0,0
28.03.2020 07:00:00 4,4 2,7 - - 22 12 - - NE 0 0,0
28.03.2020 06:00:00 3,7 2,0 - - 21 11 - - NNE 0 0,0
28.03.2020 05:00:00 3,6 1,9 - - 18 10 - - NNE 0 0,0
28.03.2020 04:00:00 3,5 1,4 - - 18 10 - - NNE 0 0,0
28.03.2020 03:00:00 3,5 1,2 - - 18 10 - - NNE 0 0,0
28.03.2020 02:00:00 3,4 1,2 - - 16 9 - - NNE 0 0,0
28.03.2020 01:00:00 3,6 0,9 - - 16 9 - - NNE - 0,0
28.03.2020 00:00:00 3,8 0,9 - - 15 8 - - NNE 0 0,0
27.03.2020 23:00:00 4,4 1,2 - - 18 10 - - NNE 0 0,0
27.03.2020 22:00:00 5,1 0,3 - - 18 10 - - NE 0 0,0
27.03.2020 21:00:00 6,2 -1,7 - - 21 11 - - NE 0 0,0
27.03.2020 20:00:00 7,3 -2,1 - - 21 11 - - NE 18 0,0
27.03.2020 19:00:00 8,9 -2,1 - - 18 10 - - NE 60 0,0
27.03.2020 18:00:00 10,5 -1,4 - - 21 11 - - NE 60 0,0
27.03.2020 17:00:00 11,2 -0,2 - - 22 12 - - NNE 60 0,0
27.03.2020 16:00:00 11,8 -0,1 - - 21 11 - - NE 60 0,0
27.03.2020 15:00:00 11,3 1,7 - - 18 10 - - NE 60 0,0
27.03.2020 14:00:00 10,5 1,5 - - 21 11 - - NE 60 0,0
27.03.2020 13:00:00 9,9 0,7 - - 18 10 - - ENE 60 0,0
27.03.2020 12:00:00 8,4 2,8 - - 16 9 - - NNE 60 0,0
27.03.2020 11:00:00 6,9 4,5 - - 15 8 - - NNE 42 0,0
27.03.2020 10:00:00 4,4 2,5 7,5 8,0 15 8 - - NNE 60 0,0
27.03.2020 09:00:00 2,8 1,7 - - 15 8 - - NNE 60 0,0
27.03.2020 08:00:00 1,3 0,7 - - 9 5 - - NNE 24 0,0
27.03.2020 07:00:00 0,8 0,1 - - 11 6 - - NNE 0 0,0
27.03.2020 06:00:00 1,0 0,2 - - 11 6 - - NNE 0 0,0
27.03.2020 05:00:00 1,4 0,6 - - 13 7 - - NNE 0 0,0
27.03.2020 04:00:00 1,2 0,1 - - 11 6 - - NNE 0 0,0
27.03.2020 03:00:00 1,6 0,3 - - 11 6 - - NNE 0 0,0
27.03.2020 02:00:00 2,3 0,4 - - 11 6 - - NNE 0 0,0
27.03.2020 01:00:00 2,4 0,2 - - 11 6 - - ENE - 0,0
27.03.2020 00:00:00 3,0 -0,4 - - 13 7 - - ENE 0 0,0
26.03.2020 23:00:00 3,8 -1,4 - - 15 8 - - NE 0 0,0
26.03.2020 22:00:00 5,5 -2,5 - - 15 8 - - ENE 0 0,0
26.03.2020 21:00:00 7,3 -2,5 - - 11 6 - - NE 0 0,0
26.03.2020 20:00:00 9,1 -3,7 - - 13 7 - - ENE 18 0,0
26.03.2020 19:00:00 11,1 -5,7 - - 13 7 - - ENE 60 0,0
26.03.2020 18:00:00 12,8 -4,0 - - 13 7 - - ENE 60 0,0
26.03.2020 17:00:00 13,4 -3,6 - - 16 9 - - ENE 60 0,0
26.03.2020 16:00:00 13,4 -4,0 - - 16 9 - - ENE 60 0,0
26.03.2020 15:00:00 12,9 -0,6 - - 16 9 - - ENE 60 0,0
26.03.2020 14:00:00 12,0 0,1 - - 13 7 - - ENE 60 0,0
26.03.2020 13:00:00 11,1 0,4 - - 16 9 - - ENE 60 0,0
26.03.2020 12:00:00 9,6 0,1 - - 15 8 - - NE 60 0,0
26.03.2020 11:00:00 8,3 1,1 - - 11 6 - - NE 60 0,0
26.03.2020 10:00:00 5,9 -0,2 7,5 8,0 13 7 - - ENE 60 0,0
26.03.2020 09:00:00 3,9 -2,3 - - 11 6 - - NE 60 0,0
26.03.2020 08:00:00 1,8 -3,6 - - 8 4 - - NE 36 0,0
26.03.2020 07:00:00 -0,1 -4,2 - - 8 4 - - NNE 0 0,0
26.03.2020 06:00:00 0,0 -4,1 - - 8 4 - - N 0 0,0
26.03.2020 05:00:00 -0,3 -3,7 - - 5 3 - - NE 0 0,0
26.03.2020 04:00:00 -0,3 -4,2 - - 4 2 - - NNE 0 0,0
26.03.2020 03:00:00 0,6 -4,4 - - 2 1 - - E 0 0,0
26.03.2020 02:00:00 3,2 -3,5 - - 8 4 - - E 0 0,0
26.03.2020 01:00:00 4,1 -3,3 - - 5 3 - - ESE - 0,0
26.03.2020 00:00:00 4,6 -2,5 - - 8 4 - - E 0 0,0
25.03.2020 23:00:00 4,4 -2,7 - - 5 3 - - E 0 0,0
25.03.2020 22:00:00 5,6 -2,9 - - 4 2 - - E 0 0,0
25.03.2020 21:00:00 8,3 -2,4 - - 5 3 - - ESE 0 0,0
25.03.2020 20:00:00 10,0 -3,5 - - 5 3 - - E 12 0,0
25.03.2020 19:00:00 12,5 -3,8 - - 11 6 - - E 60 0,0
25.03.2020 18:00:00 13,8 -3,3 - - 8 4 - - E 60 0,0
25.03.2020 17:00:00 14,4 -2,7 - - 8 4 - - ESE 60 0,0
25.03.2020 16:00:00 14,3 -1,7 - - 8 4 - - ESE 60 0,0
25.03.2020 15:00:00 14,2 -2,3 - - 8 4 - - SSE 60 0,0
25.03.2020 14:00:00 14,0 -1,8 - - 11 6 - - SSE 60 0,0
25.03.2020 13:00:00 13,1 1,0 - - 5 3 - - S 60 0,0
25.03.2020 12:00:00 11,2 0,1 - - 8 4 - - SSE 60 0,0
25.03.2020 11:00:00 9,8 0,6 - - 5 3 - - S 60 0,0
25.03.2020 10:00:00 7,9 0,1 7,7 8,0 9 5 - - S 60 0,0
25.03.2020 09:00:00 5,6 -1,2 - - 5 3 - - SSE 60 0,0
25.03.2020 08:00:00 2,7 -2,0 - - 2 1 - - S 36 0,0
25.03.2020 07:00:00 1,4 -2,9 - - 5 3 - - SSE 0 0,0
25.03.2020 06:00:00 2,6 -2,8 - - 5 3 - - SSE 0 0,0
25.03.2020 05:00:00 2,8 -3,2 - - 4 2 - - SSW 0 0,0
25.03.2020 04:00:00 4,5 -3,3 - - 5 3 - - S 0 0,0
25.03.2020 03:00:00 5,3 -3,2 - - 8 4 - - S 0 0,0
25.03.2020 02:00:00 6,2 -2,7 - - 9 5 - - SSE 0 0,0
25.03.2020 01:00:00 7,4 -0,4 - - 9 5 - - S - 0,0
25.03.2020 00:00:00 7,5 1,5 - - 8 4 - - SSE 0 0,0
24.03.2020 23:00:00 7,8 2,0 - - 5 3 - - SSE 0 0,0
24.03.2020 22:00:00 10,0 3,3 - - 8 4 - - SSE 0 0,0
24.03.2020 21:00:00 11,3 3,9 - - 8 4 - - S 0 0,0
24.03.2020 20:00:00 13,0 5,0 - - 9 5 - - S 0 0,0
24.03.2020 19:00:00 14,5 5,4 - - 13 7 - - S 54 0,0
24.03.2020 18:00:00 15,7 5,9 - - 9 5 - - S 60 0,0
24.03.2020 17:00:00 15,9 6,0 - - 13 7 - - S 60 0,0
24.03.2020 16:00:00 16,1 6,3 - - 13 7 - - S 60 0,0
24.03.2020 15:00:00 15,4 5,7 - - 15 8 - - S 60 0,0
24.03.2020 14:00:00 14,8 5,5 - - 11 6 - - S 60 0,0
24.03.2020 13:00:00 - - - - - - - - - - -

tt = Température de l'air
td = dewpoint
tt -20cm = Température de l'air -20cm
tt -100cm = Température de l'air -100cm
ff = Vitesse du vent
fx = gusts
dd = Direction du vent
sd = Ensoleillement
rr = Quantités de précipitations

stations d'obs. à proximité